Time;durP1;ratioP1;P1;durP2;ratioP2;P2;SDS_P1;SDS_P2;PMS_P1;PMS_P2;Temp;Humidity;BMP_temperature;BMP_pressure;BME280_temperature;BME280_humidity;BME280_pressure;Samples;Min_cycle;Max_cycle;Signal;HPM_P1;HPM_P2
2023/11/28 00:00:55;;;;;;;1.60;0.80;;;19.70;56.20;;;;;;5037669;28;20133;-71
2023/11/28 00:03:21;;;;;;;1.42;0.73;;;19.70;56.20;;;;;;5034052;28;20044;-71
2023/11/28 00:05:46;;;;;;;2.15;0.95;;;19.70;56.20;;;;;;5036065;28;20025;-71
2023/11/28 00:08:12;;;;;;;1.52;0.80;;;19.70;56.20;;;;;;5036010;28;20135;-71
2023/11/28 00:10:38;;;;;;;1.20;0.68;;;19.60;56.20;;;;;;5034880;28;20029;-71
2023/11/28 00:13:04;;;;;;;1.58;0.80;;;19.60;56.10;;;;;;5034923;28;20499;-71
2023/11/28 00:15:31;;;;;;;1.27;0.70;;;19.60;56.20;;;;;;5036924;28;20424;-71
2023/11/28 00:17:57;;;;;;;1.27;0.70;;;19.60;56.20;;;;;;5035202;28;20021;-71
2023/11/28 00:20:23;;;;;;;1.02;0.65;;;19.60;56.20;;;;;;5033489;28;20148;-70
2023/11/28 00:22:49;;;;;;;2.28;1.00;;;19.60;56.20;;;;;;5019281;28;20123;-64
2023/11/28 00:25:18;;;;;;;1.08;0.60;;;19.60;56.20;;;;;;5032833;28;20552;-67
2023/11/28 00:27:45;;;;;;;1.70;0.90;;;19.60;56.20;;;;;;5034920;28;20052;-65
2023/11/28 00:30:12;;;;;;;1.45;0.70;;;19.60;56.20;;;;;;5013735;28;20029;-64
2023/11/28 00:32:38;;;;;;;1.42;0.70;;;19.60;56.20;;;;;;5036078;28;20217;-65
2023/11/28 00:35:04;;;;;;;1.00;0.73;;;19.60;56.20;;;;;;5036424;28;20538;-64
2023/11/28 00:37:29;;;;;;;1.48;0.90;;;19.60;56.20;;;;;;5035977;28;20057;-64
2023/11/28 00:39:55;;;;;;;1.83;0.90;;;19.60;56.20;;;;;;5034975;28;20040;-64
2023/11/28 00:42:20;;;;;;;1.63;0.80;;;19.50;56.20;;;;;;5034413;28;20029;-64
2023/11/28 00:44:46;;;;;;;1.33;0.70;;;19.50;56.20;;;;;;5034352;28;20045;-66
2023/11/28 00:47:12;;;;;;;1.52;0.77;;;19.50;56.20;;;;;;5032345;28;20036;-64
2023/11/28 00:49:42;;;;;;;1.60;0.80;;;19.50;56.20;;;;;;5034941;28;20361;-66
2023/11/28 00:52:08;;;;;;;2.10;0.90;;;19.50;56.20;;;;;;5037788;28;20092;-65
2023/11/28 00:54:34;;;;;;;1.30;0.60;;;19.50;56.20;;;;;;5019595;28;20504;-64
2023/11/28 00:57:00;;;;;;;1.42;0.65;;;19.50;56.20;;;;;;5038262;28;20025;-64
2023/11/28 00:59:26;;;;;;;1.50;0.70;;;19.50;56.20;;;;;;5037687;28;20017;-64
2023/11/28 01:01:52;;;;;;;1.67;0.80;;;19.50;56.20;;;;;;5038695;28;20449;-71
2023/11/28 01:04:18;;;;;;;1.23;0.75;;;19.50;56.20;;;;;;5028514;28;20024;-70
2023/11/28 01:06:43;;;;;;;1.55;0.75;;;19.50;56.70;;;;;;5038179;28;20025;-71
2023/11/28 01:09:09;;;;;;;1.58;0.80;;;19.50;56.20;;;;;;5039354;28;20103;-71
2023/11/28 01:11:35;;;;;;;1.73;0.63;;;19.40;56.20;;;;;;5037749;28;20033;-71
2023/11/28 01:14:00;;;;;;;1.73;0.80;;;19.50;56.20;;;;;;5038970;28;20442;-71
2023/11/28 01:16:26;;;;;;;0.77;0.52;;;19.40;56.20;;;;;;5035580;28;20422;-71
2023/11/28 01:18:52;;;;;;;1.25;0.70;;;19.40;56.20;;;;;;5037742;28;20022;-71
2023/11/28 01:21:17;;;;;;;1.00;0.60;;;19.40;56.20;;;;;;5020607;28;20029;-70
2023/11/28 01:23:43;;;;;;;1.00;0.63;;;19.40;56.20;;;;;;5021902;28;20033;-71
2023/11/28 01:26:08;;;;;;;0.68;0.52;;;19.40;56.20;;;;;;5035866;28;20127;-71
2023/11/28 01:28:34;;;;;;;1.92;0.80;;;19.40;56.30;;;;;;5038751;28;20538;-70
2023/11/28 01:31:00;;;;;;;1.23;0.70;;;19.40;56.30;;;;;;5039169;28;20059;-71
2023/11/28 01:33:26;;;;;;;1.50;0.90;;;19.40;56.20;;;;;;5039535;28;21015;-65
2023/11/28 01:35:51;;;;;;;1.10;0.70;;;19.40;56.30;;;;;;5038003;28;20104;-65
2023/11/28 01:38:17;;;;;;;1.30;0.65;;;19.40;56.30;;;;;;5038564;28;20017;-65
2023/11/28 01:40:42;;;;;;;1.50;0.70;;;19.40;56.30;;;;;;5038382;28;20017;-65
2023/11/28 01:43:08;;;;;;;1.48;0.90;;;19.40;56.30;;;;;;5036770;28;20041;-65
2023/11/28 01:45:35;;;;;;;1.35;0.70;;;19.40;56.30;;;;;;5034230;28;20548;-65
2023/11/28 01:48:00;;;;;;;0.77;0.60;;;19.40;56.30;;;;;;5037093;28;20040;-65
2023/11/28 01:50:26;;;;;;;1.05;0.60;;;19.40;56.30;;;;;;5039269;28;20393;-65
2023/11/28 01:52:52;;;;;;;1.23;0.80;;;19.30;56.20;;;;;;5037794;28;20037;-65
2023/11/28 01:55:18;;;;;;;0.77;0.60;;;19.30;56.30;;;;;;5038835;28;20074;-66
2023/11/28 01:57:44;;;;;;;0.90;0.60;;;19.30;56.20;;;;;;5037090;28;20488;-65
2023/11/28 02:00:10;;;;;;;1.38;0.70;;;19.30;56.30;;;;;;5036488;28;20055;-65
2023/11/28 02:02:36;;;;;;;1.23;0.60;;;19.30;56.30;;;;;;5035701;28;20102;-66
2023/11/28 02:05:03;;;;;;;1.00;0.60;;;19.30;56.30;;;;;;5036802;28;20434;-66
2023/11/28 02:07:29;;;;;;;1.02;0.70;;;19.30;56.30;;;;;;5036036;28;20045;-65
2023/11/28 02:09:56;;;;;;;1.55;0.70;;;19.30;56.30;;;;;;5021386;28;20435;-66
2023/11/28 02:12:22;;;;;;;1.30;0.80;;;19.30;56.30;;;;;;5035086;28;20490;-70
2023/11/28 02:14:47;;;;;;;1.20;0.60;;;19.30;56.30;;;;;;5035897;28;20029;-71
2023/11/28 02:17:13;;;;;;;1.52;0.70;;;19.30;56.30;;;;;;5036723;28;20082;-70
2023/11/28 02:19:39;;;;;;;1.40;0.68;;;19.30;56.40;;;;;;5019577;28;20113;-71
2023/11/28 02:22:06;;;;;;;1.40;0.65;;;19.30;56.40;;;;;;5019525;28;20038;-70
2023/11/28 02:24:39;;;;;;;0.93;0.60;;;19.20;56.30;;;;;;5020607;28;20361;-71
2023/11/28 02:27:05;;;;;;;1.77;0.73;;;19.20;56.30;;;;;;5037638;28;20025;-71
2023/11/28 02:29:31;;;;;;;1.25;0.70;;;19.20;56.30;;;;;;5033101;28;20531;-70
2023/11/28 02:31:56;;;;;;;1.00;0.70;;;19.20;56.30;;;;;;5036461;28;20025;-71
2023/11/28 02:34:22;;;;;;;1.00;0.60;;;19.20;56.40;;;;;;5036887;28;20453;-70
2023/11/28 02:36:47;;;;;;;1.27;0.63;;;19.20;56.40;;;;;;5037228;28;20034;-71
2023/11/28 02:39:13;;;;;;;1.05;0.70;;;19.20;56.40;;;;;;5037520;28;20064;-71
2023/11/28 02:41:39;;;;;;;1.17;0.60;;;19.20;56.30;;;;;;5039449;28;20064;-71
2023/11/28 02:44:04;;;;;;;0.90;0.60;;;19.20;56.40;;;;;;5037986;28;20030;-71
2023/11/28 02:46:30;;;;;;;1.77;0.80;;;19.20;56.40;;;;;;5037179;28;20026;-71
2023/11/28 02:48:55;;;;;;;0.77;0.60;;;19.20;56.40;;;;;;5035813;28;20119;-71
2023/11/28 02:51:21;;;;;;;1.20;0.68;;;19.10;56.30;;;;;;5034129;28;20030;-71
2023/11/28 02:53:47;;;;;;;1.08;0.77;;;19.20;56.50;;;;;;5020311;28;20392;-71
2023/11/28 02:56:12;;;;;;;1.13;0.70;;;19.20;56.40;;;;;;5037567;28;20041;-71
2023/11/28 02:58:39;;;;;;;1.20;0.68;;;19.20;56.40;;;;;;5026901;28;20017;-71
2023/11/28 03:01:04;;;;;;;1.02;0.70;;;19.20;56.40;;;;;;5037444;28;20505;-71
2023/11/28 03:03:30;;;;;;;1.17;0.68;;;19.10;56.40;;;;;;5036772;28;20043;-71
2023/11/28 03:05:56;;;;;;;1.30;0.75;;;19.10;56.40;;;;;;5035926;28;20545;-71
2023/11/28 03:08:21;;;;;;;0.80;0.60;;;19.10;56.40;;;;;;5038908;28;20115;-71
2023/11/28 03:10:47;;;;;;;0.55;0.55;;;19.10;56.40;;;;;;5035006;28;20381;-71
2023/11/28 03:13:13;;;;;;;1.27;0.77;;;19.10;56.50;;;;;;5036332;28;20030;-71
2023/11/28 03:15:38;;;;;;;0.63;0.60;;;19.10;56.50;;;;;;5035126;28;20100;-71
2023/11/28 03:18:08;;;;;;;0.70;0.68;;;19.10;56.50;;;;;;5037141;28;20017;-71
2023/11/28 03:20:35;;;;;;;1.00;0.60;;;19.10;56.50;;;;;;5034736;28;20029;-71
2023/11/28 03:23:00;;;;;;;0.95;0.60;;;19.10;56.50;;;;;;5036142;28;20025;-64
2023/11/28 03:25:26;;;;;;;0.82;0.60;;;19.10;56.50;;;;;;5035296;28;20537;-66
2023/11/28 03:27:51;;;;;;;1.10;0.60;;;19.10;57.00;;;;;;5035000;28;20041;-65
2023/11/28 03:30:17;;;;;;;1.17;0.68;;;19.10;56.50;;;;;;5035686;28;20480;-67
2023/11/28 03:32:43;;;;;;;1.08;0.75;;;19.10;56.50;;;;;;5037103;28;20138;-65
2023/11/28 03:35:08;;;;;;;1.30;0.70;;;19.00;56.50;;;;;;5036111;28;20094;-65
2023/11/28 03:37:34;;;;;;;0.40;0.40;;;19.00;56.50;;;;;;5032837;28;20030;-65
2023/11/28 03:40:00;;;;;;;0.80;0.80;;;19.00;56.50;;;;;;5035033;28;20541;-65
2023/11/28 03:42:25;;;;;;;0.80;0.55;;;19.00;56.50;;;;;;5034527;28;20029;-65
2023/11/28 03:44:51;;;;;;;1.08;0.70;;;19.00;56.50;;;;;;5033765;28;20033;-65
2023/11/28 03:47:16;;;;;;;0.70;0.50;;;19.00;56.50;;;;;;5038033;28;20101;-66
2023/11/28 03:49:42;;;;;;;1.17;0.60;;;19.00;56.60;;;;;;5035422;28;20025;-65
2023/11/28 03:52:08;;;;;;;1.08;0.60;;;19.00;56.50;;;;;;5018798;28;20025;-64
2023/11/28 03:54:33;;;;;;;0.50;0.50;;;19.00;56.60;;;;;;5035743;28;20112;-64
2023/11/28 03:56:59;;;;;;;0.88;0.50;;;19.00;56.60;;;;;;5036189;28;20074;-65
2023/11/28 03:59:24;;;;;;;0.85;0.60;;;18.90;56.60;;;;;;5035561;28;20460;-64
2023/11/28 04:01:50;;;;;;;0.75;0.68;;;18.90;56.60;;;;;;5018586;28;20481;-65
2023/11/28 04:04:16;;;;;;;0.85;0.52;;;18.90;56.60;;;;;;5037026;28;20112;-66
2023/11/28 04:06:41;;;;;;;1.02;0.60;;;18.90;56.60;;;;;;5035741;28;20025;-65
2023/11/28 04:09:07;;;;;;;1.15;0.60;;;18.90;56.60;;;;;;5026529;28;20025;-65
2023/11/28 04:11:35;;;;;;;0.82;0.60;;;18.90;56.60;;;;;;5034361;28;20573;-64
2023/11/28 04:14:00;;;;;;;1.23;0.60;;;18.90;56.60;;;;;;5035476;28;20132;-65
2023/11/28 04:16:26;;;;;;;0.63;0.50;;;18.90;56.60;;;;;;5034804;28;20097;-65
2023/11/28 04:18:52;;;;;;;1.08;0.60;;;18.90;56.70;;;;;;5033050;28;20552;-64
2023/11/28 04:21:22;;;;;;;1.10;0.70;;;18.90;56.70;;;;;;5033654;28;20025;-64
2023/11/28 04:23:47;;;;;;;;;;;18.90;56.70;;;;;;5035525;28;20031;-64
2023/11/28 04:26:13;;;;;;;1.08;0.70;;;18.90;56.70;;;;;;5021374;28;20011;-63
2023/11/28 04:28:39;;;;;;;1.30;0.60;;;18.90;56.70;;;;;;5038990;28;20074;-65
2023/11/28 04:31:05;;;;;;;0.70;0.60;;;18.90;56.70;;;;;;5021725;28;20349;-64
2023/11/28 04:33:31;;;;;;;0.85;0.57;;;18.90;56.70;;;;;;5038525;28;20499;-66
2023/11/28 04:35:57;;;;;;;1.90;0.77;;;18.90;56.80;;;;;;5039954;28;20021;-65
2023/11/28 04:38:23;;;;;;;0.88;0.65;;;18.90;56.70;;;;;;5039343;28;20049;-65
2023/11/28 04:40:49;;;;;;;0.70;0.57;;;18.90;57.30;;;;;;5038135;28;20120;-67
2023/11/28 04:43:15;;;;;;;1.00;0.70;;;18.90;56.80;;;;;;5039086;28;20461;-65
2023/11/28 04:45:41;;;;;;;0.70;0.60;;;18.90;56.80;;;;;;5037456;28;20031;-67
2023/11/28 04:48:06;;;;;;;0.90;0.65;;;18.90;56.80;;;;;;5021648;28;20061;-65
2023/11/28 04:50:32;;;;;;;0.93;0.60;;;18.90;56.80;;;;;;5036349;28;20051;-67
2023/11/28 04:52:57;;;;;;;0.93;0.60;;;18.90;56.90;;;;;;5039622;28;20025;-66
2023/11/28 04:55:23;;;;;;;0.70;0.50;;;18.90;57.00;;;;;;5039494;28;20428;-65
2023/11/28 04:57:49;;;;;;;0.85;0.57;;;18.80;56.90;;;;;;5021168;28;20021;-66
2023/11/28 05:00:15;;;;;;;0.80;0.60;;;18.80;57.40;;;;;;5021297;28;20472;-69
2023/11/28 05:02:41;;;;;;;0.90;0.60;;;18.80;56.90;;;;;;5020927;28;20164;-66
2023/11/28 05:05:07;;;;;;;0.85;0.50;;;18.80;57.00;;;;;;5037146;28;20029;-70
2023/11/28 05:07:33;;;;;;;0.65;0.60;;;18.80;57.00;;;;;;5039506;28;20033;-70
2023/11/28 05:09:59;;;;;;;0.63;0.50;;;18.80;57.00;;;;;;5020236;28;20040;-71
2023/11/28 05:12:25;;;;;;;0.60;0.50;;;18.90;57.00;;;;;;5037314;28;20070;-70
2023/11/28 05:14:51;;;;;;;0.82;0.52;;;18.80;57.00;;;;;;5038231;28;20071;-71
2023/11/28 05:17:16;;;;;;;1.27;0.60;;;18.90;57.10;;;;;;5037231;28;20025;-70
2023/11/28 05:19:42;;;;;;;0.60;0.50;;;18.80;57.10;;;;;;5036877;28;20021;-70
2023/11/28 05:22:07;;;;;;;0.50;0.40;;;18.80;57.10;;;;;;5038096;28;20087;-70
2023/11/28 05:24:33;;;;;;;0.52;0.50;;;18.80;57.10;;;;;;5038386;28;20488;-71
2023/11/28 05:26:59;;;;;;;0.80;0.50;;;18.80;57.10;;;;;;5036382;28;20093;-70
2023/11/28 05:29:25;;;;;;;0.52;0.50;;;18.80;57.10;;;;;;5038818;28;20029;-70
2023/11/28 05:31:51;;;;;;;0.77;0.55;;;18.80;57.10;;;;;;5035859;28;21014;-70
2023/11/28 05:34:17;;;;;;;0.60;0.50;;;18.80;57.20;;;;;;5038781;28;20080;-70
2023/11/28 05:36:42;;;;;;;0.50;0.50;;;18.80;57.70;;;;;;5036079;28;20477;-70
2023/11/28 05:39:08;;;;;;;0.65;0.60;;;18.80;57.20;;;;;;5038807;28;20033;-70
2023/11/28 05:41:34;;;;;;;0.47;0.40;;;18.80;57.20;;;;;;5038280;28;20025;-69
2023/11/28 05:44:00;;;;;;;0.93;0.50;;;18.80;57.20;;;;;;5038481;28;20021;-66
2023/11/28 05:46:26;;;;;;;1.45;0.68;;;18.80;57.20;;;;;;5036388;28;20054;-66
2023/11/28 05:48:51;;;;;;;0.70;0.55;;;18.80;57.20;;;;;;5040217;28;20037;-66
2023/11/28 05:51:17;;;;;;;0.85;0.50;;;18.80;57.30;;;;;;5037111;28;20033;-66
2023/11/28 05:53:43;;;;;;;0.52;0.50;;;18.80;57.30;;;;;;5036664;28;20024;-65
2023/11/28 05:56:10;;;;;;;0.60;0.50;;;18.80;57.30;;;;;;5036872;28;20028;-65
2023/11/28 05:58:36;;;;;;;0.47;0.47;;;18.80;57.30;;;;;;5038718;28;20989;-67
2023/11/28 06:01:02;;;;;;;0.70;0.60;;;18.80;57.30;;;;;;5035501;28;20498;-65
2023/11/28 06:03:27;;;;;;;0.43;0.40;;;18.80;57.30;;;;;;5037621;28;20085;-67
2023/11/28 06:05:53;;;;;;;1.00;0.50;;;18.80;57.30;;;;;;5036836;28;20059;-66
2023/11/28 06:08:18;;;;;;;0.75;0.57;;;18.80;57.40;;;;;;5037515;28;20500;-66
2023/11/28 06:10:44;;;;;;;0.40;0.40;;;18.80;57.40;;;;;;5039515;28;20052;-67
2023/11/28 06:13:10;;;;;;;1.00;0.60;;;18.80;57.80;;;;;;5038188;28;20029;-66
2023/11/28 06:15:36;;;;;;;1.40;0.60;;;18.80;58.10;;;;;;5036868;28;20037;-67
2023/11/28 06:18:02;;;;;;;0.80;0.60;;;18.80;58.10;;;;;;5019688;28;20021;-66
2023/11/28 06:20:27;;;;;;;0.47;0.43;;;18.90;59.30;;;;;;5037419;28;20021;-67
2023/11/28 06:22:53;;;;;;;1.23;0.70;;;19.10;59.20;;;;;;5036179;28;20040;-67
2023/11/28 06:25:19;;;;;;;0.95;0.70;;;19.20;58.90;;;;;;5038303;28;20026;-67
2023/11/28 06:27:44;;;;;;;1.10;0.65;;;19.40;59.40;;;;;;5036777;28;20033;-67
2023/11/28 06:30:12;;;;;;;1.35;0.60;;;19.60;58.30;;;;;;5036992;28;20053;-67
2023/11/28 06:32:38;;;;;;;1.33;0.65;;;19.70;58.30;;;;;;5036054;28;20021;-67
2023/11/28 06:35:04;;;;;;;1.23;0.50;;;19.90;57.60;;;;;;5036261;28;20165;-68
2023/11/28 06:37:30;;;;;;;0.70;0.60;;;20.00;57.50;;;;;;5035149;28;20483;-66
2023/11/28 06:39:55;;;;;;;0.50;0.50;;;20.10;57.70;;;;;;5035904;28;20026;-67
2023/11/28 06:42:21;;;;;;;0.73;0.50;;;20.00;57.20;;;;;;5035445;28;20078;-66
2023/11/28 06:44:47;;;;;;;0.57;0.47;;;20.00;57.30;;;;;;5037204;28;20029;-67
2023/11/28 06:47:12;;;;;;;1.05;0.60;;;20.00;57.40;;;;;;5032917;28;20034;-66
2023/11/28 06:49:38;;;;;;;0.45;0.45;;;19.90;57.40;;;;;;5036202;28;20733;-67
2023/11/28 06:52:04;;;;;;;1.52;0.60;;;20.00;57.70;;;;;;5036077;28;20041;-67
2023/11/28 06:54:30;;;;;;;1.00;0.50;;;20.10;57.20;;;;;;5036324;28;20542;-66
2023/11/28 06:56:55;;;;;;;0.77;0.50;;;20.20;57.10;;;;;;5038779;28;20136;-66
2023/11/28 06:59:21;;;;;;;0.52;0.50;;;20.20;57.10;;;;;;5019602;28;20025;-66
2023/11/28 07:01:48;;;;;;;1.55;0.60;;;20.20;57.00;;;;;;5034532;28;20093;-66
2023/11/28 07:04:15;;;;;;;1.00;0.60;;;20.30;57.20;;;;;;5035559;28;20499;-66
2023/11/28 07:06:40;;;;;;;1.13;0.63;;;20.50;56.50;;;;;;5019586;28;20025;-66
2023/11/28 07:09:06;;;;;;;1.15;0.57;;;20.60;56.30;;;;;;5036937;28;20456;-66
2023/11/28 07:11:33;;;;;;;0.68;0.50;;;20.70;56.40;;;;;;5036805;28;20586;-67
2023/11/28 07:14:00;;;;;;;0.88;0.60;;;20.60;56.30;;;;;;5036569;28;20144;-67
2023/11/28 07:16:26;;;;;;;0.75;0.50;;;20.70;56.40;;;;;;5035039;28;20468;-66
2023/11/28 07:18:51;;;;;;;1.30;0.60;;;20.60;56.30;;;;;;5037512;28;20135;-67
2023/11/28 07:21:17;;;;;;;1.60;0.70;;;20.60;56.30;;;;;;5036186;28;20029;-67
2023/11/28 07:23:45;;;;;;;1.20;0.60;;;20.70;56.50;;;;;;5034583;28;20044;-70
2023/11/28 07:26:12;;;;;;;0.73;0.50;;;20.90;56.10;;;;;;5035286;28;20067;-70
2023/11/28 07:28:37;;;;;;;1.38;0.60;;;21.30;55.70;;;;;;5035781;28;20350;-70
2023/11/28 07:31:03;;;;;;;0.93;0.60;;;21.50;54.90;;;;;;5018996;28;20189;-70
2023/11/28 07:33:29;;;;;;;0.70;0.50;;;21.80;55.00;;;;;;5034363;28;20079;-69
2023/11/28 07:35:54;;;;;;;0.82;0.50;;;21.90;53.90;;;;;;5037189;28;20097;-69
2023/11/28 07:38:24;;;;;;;0.70;0.40;;;22.10;53.50;;;;;;5037752;28;20394;-70
2023/11/28 07:40:51;;;;;;;0.90;0.50;;;22.30;53.20;;;;;;5018236;28;20100;-70
2023/11/28 07:43:16;;;;;;;1.02;0.60;;;22.40;52.90;;;;;;5035912;28;20032;-70
2023/11/28 07:45:42;;;;;;;0.50;0.50;;;22.50;52.50;;;;;;5035009;28;20029;-70
2023/11/28 07:48:08;;;;;;;0.50;0.50;;;22.70;52.30;;;;;;5033130;28;20098;-69
2023/11/28 07:50:34;;;;;;;0.88;0.60;;;22.70;52.00;;;;;;5033639;28;20029;-69
2023/11/28 07:53:00;;;;;;;0.43;0.40;;;22.80;51.80;;;;;;5036907;28;20028;-70
2023/11/28 07:55:25;;;;;;;1.77;0.70;;;23.00;51.60;;;;;;5035445;28;20384;-70
2023/11/28 07:57:51;;;;;;;1.42;0.55;;;23.10;51.60;;;;;;5036070;28;20057;-69
2023/11/28 08:00:20;;;;;;;1.33;0.50;;;23.10;51.60;;;;;;5018545;28;20148;-69
2023/11/28 08:02:46;;;;;;;0.75;0.50;;;23.20;51.50;;;;;;5033193;28;20033;-69
2023/11/28 08:05:12;;;;;;;0.40;0.40;;;23.30;51.40;;;;;;5035797;28;20025;-71
2023/11/28 08:07:37;;;;;;;0.50;0.40;;;23.40;51.10;;;;;;5035024;28;20114;-71
2023/11/28 08:10:10;;;;;;;0.75;0.52;;;23.40;51.20;;;;;;5034648;28;20026;-71
2023/11/28 08:12:36;;;;;;;1.00;0.70;;;23.20;51.00;;;;;;5036673;28;20033;-73
2023/11/28 08:15:02;;;;;;;1.20;0.70;;;23.10;50.30;;;;;;5033853;28;20459;-72
2023/11/28 08:17:28;;;;;;;0.50;0.47;;;22.90;50.10;;;;;;5033984;28;20026;-72
2023/11/28 08:19:53;;;;;;;1.00;0.60;;;22.80;50.60;;;;;;5035880;28;20025;-72
2023/11/28 08:22:19;;;;;;;1.17;0.60;;;22.70;50.80;;;;;;5034961;28;20021;-72
2023/11/28 08:24:45;;;;;;;0.90;0.55;;;22.80;51.00;;;;;;5035750;28;20029;-72
2023/11/28 08:27:10;;;;;;;0.65;0.52;;;22.80;51.40;;;;;;5036470;28;20149;-71
2023/11/28 08:29:36;;;;;;;0.47;0.35;;;22.80;51.40;;;;;;5035933;28;20018;-71
2023/11/28 08:32:02;;;;;;;0.40;0.40;;;22.80;51.40;;;;;;5033863;28;20025;-70
2023/11/28 08:34:28;;;;;;;0.50;0.50;;;22.70;51.50;;;;;;5035820;28;20022;-70
2023/11/28 08:36:53;;;;;;;0.75;0.50;;;22.70;51.80;;;;;;5034912;28;20018;-72
2023/11/28 08:39:19;;;;;;;0.77;0.50;;;22.80;51.40;;;;;;5036431;28;20025;-71
2023/11/28 08:41:45;;;;;;;0.38;0.38;;;22.90;51.50;;;;;;5036160;28;20033;-70
2023/11/28 08:44:10;;;;;;;0.50;0.50;;;22.90;51.60;;;;;;5034906;28;20041;-70
2023/11/28 08:46:39;;;;;;;1.35;0.60;;;22.80;51.70;;;;;;5015775;28;20048;-71
2023/11/28 08:49:05;;;;;;;0.70;0.60;;;22.90;51.80;;;;;;5034599;28;20473;-69
2023/11/28 08:51:31;;;;;;;0.70;0.60;;;23.00;51.50;;;;;;5032903;28;20047;-69
2023/11/28 08:53:57;;;;;;;0.50;0.50;;;23.00;51.40;;;;;;5017361;28;20032;-70
2023/11/28 08:56:23;;;;;;;0.70;0.50;;;23.00;51.50;;;;;;5033801;28;20096;-71
2023/11/28 08:58:49;;;;;;;0.75;0.50;;;23.00;51.40;;;;;;5036394;28;20040;-72
2023/11/28 09:01:15;;;;;;;0.68;0.60;;;23.00;51.40;;;;;;5035168;28;20061;-73
2023/11/28 09:03:41;;;;;;;0.93;0.63;;;23.00;51.30;;;;;;5032954;28;20055;-73
2023/11/28 09:06:07;;;;;;;1.00;0.70;;;23.10;51.60;;;;;;5033580;28;20465;-71
2023/11/28 09:08:33;;;;;;;0.73;0.50;;;23.30;51.10;;;;;;5034511;28;20079;-70
2023/11/28 09:10:59;;;;;;;0.43;0.40;;;23.30;51.10;;;;;;5036144;28;20131;-71
2023/11/28 09:13:25;;;;;;;1.13;0.50;;;23.30;51.20;;;;;;5037726;28;20104;-71
2023/11/28 09:15:50;;;;;;;0.70;0.40;;;23.30;51.20;;;;;;5038462;28;20029;-70
2023/11/28 09:18:16;;;;;;;0.90;0.60;;;23.20;51.20;;;;;;5036485;28;20500;-71
2023/11/28 09:20:42;;;;;;;1.40;0.50;;;23.30;51.40;;;;;;5019411;28;20030;-70
2023/11/28 09:23:07;;;;;;;0.75;0.50;;;23.40;50.60;;;;;;5039031;28;20021;-71
2023/11/28 09:25:33;;;;;;;1.15;0.50;;;23.40;50.70;;;;;;5039373;28;20033;-72
2023/11/28 09:27:58;;;;;;;0.93;0.50;;;23.40;50.60;;;;;;5039758;28;20033;-72
2023/11/28 09:30:24;;;;;;;0.85;0.50;;;23.30;50.50;;;;;;5022354;28;20033;-71
2023/11/28 09:32:50;;;;;;;1.20;0.50;;;23.30;50.60;;;;;;5037039;28;20109;-71
2023/11/28 09:35:16;;;;;;;0.73;0.60;;;23.30;51.10;;;;;;5041589;28;20502;-72
2023/11/28 09:37:41;;;;;;;1.20;0.50;;;23.30;50.00;;;;;;5037357;28;20407;-70
2023/11/28 09:40:08;;;;;;;0.90;0.55;;;23.30;49.80;;;;;;5037474;28;20030;-70
2023/11/28 09:42:35;;;;;;;0.60;0.45;;;23.30;50.20;;;;;;5039314;28;20434;-71
2023/11/28 09:45:04;;;;;;;0.70;0.57;;;23.30;49.70;;;;;;5029364;28;20048;-66
2023/11/28 09:47:35;;;;;;;0.80;0.57;;;23.20;49.60;;;;;;5027489;28;20034;-65
2023/11/28 09:50:05;;;;;;;1.13;0.60;;;23.20;49.70;;;;;;5037432;28;20082;-66
2023/11/28 09:52:33;;;;;;;0.90;0.60;;;23.20;49.80;;;;;;5037514;28;20064;-67
2023/11/28 09:55:00;;;;;;;1.08;0.60;;;23.20;49.80;;;;;;5039322;28;20395;-65
2023/11/28 09:57:32;;;;;;;0.63;0.50;;;23.10;49.70;;;;;;5039733;28;20048;-65
2023/11/28 09:59:58;;;;;;;0.50;0.50;;;23.10;49.70;;;;;;5037817;28;20024;-66
2023/11/28 10:02:27;;;;;;;1.25;0.70;;;23.10;49.80;;;;;;5039517;28;20376;-65
2023/11/28 10:04:53;;;;;;;0.95;0.52;;;23.00;49.80;;;;;;5037643;28;20025;-65
2023/11/28 10:07:31;;;;;;;0.65;0.47;;;23.00;49.80;;;;;;5035998;28;20021;-65
2023/11/28 10:10:00;;;;;;;0.68;0.60;;;23.00;50.00;;;;;;5036485;28;20385;-65
2023/11/28 10:12:26;;;;;;;2.10;0.70;;;23.00;50.00;;;;;;5038204;28;20232;-65
2023/11/28 10:14:53;;;;;;;1.08;0.50;;;23.00;50.10;;;;;;5035240;28;20033;-65
2023/11/28 10:17:19;;;;;;;1.25;0.60;;;22.90;50.10;;;;;;5037370;28;20053;-65
2023/11/28 10:19:46;;;;;;;1.73;0.50;;;22.90;50.10;;;;;;5036641;28;20028;-64
2023/11/28 10:22:12;;;;;;;0.68;0.50;;;22.90;50.20;;;;;;5037154;28;20026;-67
2023/11/28 10:24:39;;;;;;;1.83;0.60;;;22.80;50.20;;;;;;5036601;28;20485;-72
2023/11/28 10:27:05;;;;;;;0.95;0.55;;;22.80;50.20;;;;;;5037307;28;20041;-72
2023/11/28 10:29:32;;;;;;;1.83;0.50;;;22.80;50.30;;;;;;5037294;28;20041;-73
2023/11/28 10:31:59;;;;;;;0.80;0.50;;;22.80;50.30;;;;;;5037253;28;20488;-72
2023/11/28 10:34:24;;;;;;;1.38;0.57;;;22.80;50.30;;;;;;5035746;28;20029;-72
2023/11/28 10:36:50;;;;;;;1.65;0.70;;;22.70;50.80;;;;;;5038479;28;20028;-72
2023/11/28 10:39:19;;;;;;;0.85;0.50;;;22.70;50.40;;;;;;5022105;28;20037;-71
2023/11/28 10:41:44;;;;;;;1.73;0.70;;;22.70;50.50;;;;;;5035807;28;20078;-71
2023/11/28 10:44:10;;;;;;;0.65;0.50;;;22.70;50.60;;;;;;5035563;28;20259;-72
2023/11/28 10:46:38;;;;;;;0.90;0.60;;;22.70;50.60;;;;;;5038480;28;20029;-72
2023/11/28 10:49:05;;;;;;;1.73;0.70;;;22.60;50.50;;;;;;5036231;28;20129;-71
2023/11/28 10:51:31;;;;;;;0.73;0.47;;;22.60;50.60;;;;;;5038440;28;20021;-70
2023/11/28 10:54:18;;;;;;;0.63;0.40;;;22.60;50.70;;;;;;5037669;28;20112;-64
2023/11/28 10:56:47;;;;;;;0.90;0.63;;;22.60;50.80;;;;;;5035329;28;20156;-65
2023/11/28 10:59:34;;;;;;;1.27;0.60;;;22.50;50.80;;;;;;5035663;28;20048;-65
2023/11/28 11:02:01;;;;;;;0.90;0.60;;;22.60;50.90;;;;;;5036902;28;20157;-65
2023/11/28 11:04:30;;;;;;;0.77;0.50;;;22.50;50.80;;;;;;5018410;28;20085;-66
2023/11/28 11:06:57;;;;;;;1.05;0.60;;;22.50;50.80;;;;;;5038691;28;20628;-66
2023/11/28 11:09:24;;;;;;;0.55;0.50;;;22.50;50.90;;;;;;5037562;28;20035;-65
2023/11/28 11:11:51;;;;;;;0.45;0.45;;;22.40;51.40;;;;;;5035371;28;20481;-67
2023/11/28 11:14:50;;;;;;;0.50;0.50;;;22.40;51.10;;;;;;5037217;28;20053;-66
2023/11/28 11:17:27;;;;;;;1.00;0.60;;;22.40;51.10;;;;;;5035999;28;20106;-65
2023/11/28 11:19:56;;;;;;;1.08;0.57;;;22.40;51.10;;;;;;5035304;28;20071;-66
2023/11/28 11:22:25;;;;;;;0.43;0.40;;;22.40;51.10;;;;;;5036377;28;20025;-65
2023/11/28 11:24:53;;;;;;;1.00;0.57;;;22.40;51.20;;;;;;5036587;28;20037;-66
2023/11/28 11:27:18;;;;;;;0.95;0.50;;;22.30;51.10;;;;;;5039500;28;20595;-65
2023/11/28 11:29:45;;;;;;;1.08;0.60;;;22.30;51.20;;;;;;5037138;28;20032;-65
2023/11/28 11:32:15;;;;;;;0.60;0.50;;;22.30;51.20;;;;;;5035548;28;20045;-66
2023/11/28 11:34:44;;;;;;;1.33;0.57;;;22.30;51.30;;;;;;5035418;28;20511;-65
2023/11/28 11:37:13;;;;;;;1.20;0.60;;;22.30;51.30;;;;;;5035483;28;20022;-64
2023/11/28 11:39:40;;;;;;;1.02;0.70;;;22.30;51.40;;;;;;5034797;28;20025;-65
2023/11/28 11:42:13;;;;;;;0.93;0.60;;;22.30;51.40;;;;;;5036009;28;20017;-65
2023/11/28 11:45:00;;;;;;;0.63;0.40;;;22.20;51.50;;;;;;5036105;28;20541;-65
2023/11/28 11:47:27;;;;;;;0.98;0.60;;;22.30;52.60;;;;;;5036320;28;20053;-64
2023/11/28 11:49:55;;;;;;;0.60;0.50;;;22.30;52.50;;;;;;5033450;28;20026;-66
2023/11/28 11:52:24;;;;;;;0.30;0.30;;;22.30;52.90;;;;;;5025089;28;20484;-64
2023/11/28 11:55:03;;;;;;;0.60;0.50;;;22.30;53.20;;;;;;5035809;28;20025;-65
2023/11/28 11:57:28;;;;;;;1.87;0.50;;;22.30;53.40;;;;;;5034438;28;20034;-65
2023/11/28 11:59:54;;;;;;;0.65;0.40;;;22.30;53.90;;;;;;5035053;28;20291;-64
2023/11/28 12:02:20;;;;;;;0.43;0.40;;;22.40;54.20;;;;;;5039083;28;20036;-65
2023/11/28 12:04:46;;;;;;;1.17;0.50;;;22.40;54.40;;;;;;5035912;28;20037;-66
2023/11/28 12:07:15;;;;;;;0.70;0.50;;;22.40;54.80;;;;;;5033898;28;20116;-64
2023/11/28 12:09:42;;;;;;;0.80;0.50;;;22.40;55.00;;;;;;5034487;28;20028;-65
2023/11/28 12:12:12;;;;;;;0.63;0.50;;;22.40;55.10;;;;;;5035502;28;20029;-65
2023/11/28 12:14:39;;;;;;;1.80;0.50;;;22.40;55.30;;;;;;5033422;28;20029;-64
2023/11/28 12:17:06;;;;;;;1.00;0.60;;;22.50;55.50;;;;;;5018636;28;20035;-63
2023/11/28 12:19:33;;;;;;;1.20;0.50;;;22.50;56.20;;;;;;5034783;28;20021;-66
2023/11/28 12:22:02;;;;;;;1.00;0.50;;;22.50;55.90;;;;;;5035935;28;20048;-65
2023/11/28 12:24:28;;;;;;;1.30;0.63;;;22.50;56.00;;;;;;5035194;28;20077;-65
2023/11/28 12:26:55;;;;;;;0.40;0.40;;;22.50;56.20;;;;;;5034117;28;20041;-64
2023/11/28 12:29:21;;;;;;;0.60;0.50;;;22.60;56.50;;;;;;5034358;28;20034;-64
2023/11/28 12:31:47;;;;;;;0.95;0.55;;;22.50;56.50;;;;;;5034912;28;20085;-64
2023/11/28 12:34:12;;;;;;;1.33;0.60;;;22.60;56.70;;;;;;5034915;28;20481;-65
2023/11/28 12:36:43;;;;;;;1.35;0.55;;;22.60;56.70;;;;;;5037546;28;20071;-64
2023/11/28 12:39:11;;;;;;;1.10;0.55;;;22.60;56.90;;;;;;5035339;28;20013;-65
2023/11/28 12:41:38;;;;;;;1.25;0.70;;;22.60;56.90;;;;;;5035656;28;20405;-64
2023/11/28 12:44:13;;;;;;;1.73;0.70;;;22.70;56.90;;;;;;5037363;28;20034;-71